createdAt,value
2018-06-25T00:01:12.497Z,15.30
2018-06-25T00:03:39.650Z,14.40
2018-06-25T00:06:06.841Z,15.17
2018-06-25T00:08:33.990Z,14.60
2018-06-25T00:11:01.146Z,14.77
2018-06-25T00:13:28.334Z,13.83
2018-06-25T00:15:55.523Z,15.17
2018-06-25T00:18:22.653Z,15.00
2018-06-25T00:20:49.796Z,15.20
2018-06-25T00:23:17.024Z,15.30
2018-06-25T00:25:44.165Z,14.60
2018-06-25T00:28:11.312Z,14.77
2018-06-25T00:30:38.503Z,14.53
2018-06-25T00:33:05.667Z,14.40
2018-06-25T00:35:32.859Z,15.10
2018-06-25T00:38:00.026Z,14.43
2018-06-25T00:40:27.183Z,14.73
2018-06-25T00:42:57.304Z,14.50
2018-06-25T00:45:24.540Z,15.03
2018-06-25T00:47:51.688Z,14.87
2018-06-25T00:50:18.836Z,14.27
2018-06-25T00:52:46.029Z,14.07
2018-06-25T00:55:13.153Z,14.73
2018-06-25T00:57:40.283Z,14.07
2018-06-25T01:00:07.508Z,15.40
2018-06-25T01:02:34.649Z,14.63
2018-06-25T01:05:01.809Z,15.27
2018-06-25T01:07:29.016Z,14.30
2018-06-25T01:09:56.179Z,14.93
2018-06-25T01:12:23.333Z,14.37
2018-06-25T01:14:50.540Z,13.67
2018-06-25T01:17:17.687Z,14.00
2018-06-25T01:19:44.841Z,14.20
2018-06-25T01:22:12.018Z,15.40
2018-06-25T01:24:40.664Z,15.23
2018-06-25T01:27:08.866Z,14.10
2018-06-25T01:29:36.578Z,15.40
2018-06-25T01:32:03.771Z,14.83
2018-06-25T01:34:30.976Z,15.70
2018-06-25T01:36:58.157Z,14.77
2018-06-25T01:39:25.343Z,14.93
2018-06-25T01:41:52.488Z,14.47
2018-06-25T01:44:19.636Z,15.37
2018-06-25T01:46:46.814Z,15.17
2018-06-25T01:49:13.919Z,15.50
2018-06-25T01:51:41.093Z,16.43
2018-06-25T01:54:08.234Z,15.00
2018-06-25T01:56:35.358Z,15.27
2018-06-25T01:59:02.528Z,15.77
2018-06-25T02:01:34.640Z,15.33
2018-06-25T02:04:02.044Z,14.67
2018-06-25T02:06:29.249Z,15.43
2018-06-25T02:08:56.402Z,15.20
2018-06-25T02:11:23.536Z,15.50
2018-06-25T02:13:50.693Z,15.97
2018-06-25T02:16:17.833Z,16.93
2018-06-25T02:18:45.262Z,16.13
2018-06-25T02:21:12.449Z,17.43
2018-06-25T02:23:39.589Z,16.40
2018-06-25T02:26:06.752Z,16.60
2018-06-25T02:28:33.947Z,16.70
2018-06-25T02:31:01.136Z,16.43
2018-06-25T02:33:28.272Z,17.10
2018-06-25T02:35:55.844Z,16.43
2018-06-25T02:38:22.995Z,16.97
2018-06-25T02:40:50.129Z,17.90
2018-06-25T02:43:17.333Z,17.20
2018-06-25T02:45:44.485Z,17.87
2018-06-25T02:48:11.736Z,17.27
2018-06-25T02:50:38.911Z,16.00
2018-06-25T02:53:06.037Z,16.43
2018-06-25T02:55:33.201Z,18.30
2018-06-25T02:58:00.416Z,17.50
2018-06-25T03:00:27.722Z,18.20
2018-06-25T03:02:54.847Z,18.60
2018-06-25T03:05:22.027Z,17.33
2018-06-25T03:07:49.183Z,18.23
2018-06-25T03:10:16.364Z,18.03
2018-06-25T03:12:43.709Z,18.40
2018-06-25T03:15:10.823Z,19.30
2018-06-25T03:17:38.077Z,18.90
2018-06-25T03:20:05.486Z,18.60
2018-06-25T03:22:32.641Z,18.30
2018-06-25T03:24:59.972Z,17.73
2018-06-25T03:27:27.161Z,18.03
2018-06-25T03:29:54.359Z,18.27
2018-06-25T03:32:21.528Z,15.27
2018-06-25T03:34:48.788Z,15.80
2018-06-25T03:37:16.984Z,15.10
2018-06-25T03:39:44.160Z,15.13
2018-06-25T03:42:11.304Z,16.23
2018-06-25T03:44:38.434Z,15.63
2018-06-25T03:47:05.550Z,16.50
2018-06-25T03:49:32.845Z,15.57
2018-06-25T03:51:59.971Z,16.70
2018-06-25T03:54:27.251Z,16.73
2018-06-25T03:56:54.513Z,16.37
2018-06-25T03:59:21.648Z,16.20
2018-06-25T04:01:48.909Z,17.80
2018-06-25T04:04:16.080Z,17.50
2018-06-25T04:06:43.234Z,17.60
2018-06-25T04:09:11.862Z,14.77
2018-06-25T04:11:39.498Z,15.87
2018-06-25T04:14:06.635Z,15.83
2018-06-25T04:16:33.789Z,15.87
2018-06-25T04:19:04.786Z,15.13
2018-06-25T04:21:33.635Z,15.73
2018-06-25T04:24:01.351Z,16.20
2018-06-25T04:26:28.752Z,16.80
2018-06-25T04:28:55.969Z,16.27
2018-06-25T04:31:23.380Z,16.47
2018-06-25T04:33:50.681Z,15.73
2018-06-25T04:36:17.818Z,16.10
2018-06-25T04:38:44.963Z,17.80
2018-06-25T04:41:12.358Z,16.67
2018-06-25T04:43:40.953Z,17.30
2018-06-25T04:46:08.448Z,15.53
2018-06-25T04:48:37.174Z,16.23
2018-06-25T04:51:05.138Z,15.20
2018-06-25T04:53:32.354Z,16.57
2018-06-25T04:55:59.563Z,15.93
2018-06-25T04:58:35.171Z,16.87
2018-06-25T05:01:02.602Z,17.20
2018-06-25T05:03:29.827Z,18.77
2018-06-25T05:05:56.978Z,17.60
2018-06-25T05:08:24.537Z,17.53
2018-06-25T05:10:51.817Z,17.67
2018-06-25T05:13:19.004Z,18.60
2018-06-25T05:15:46.197Z,17.63
2018-06-25T05:18:13.377Z,16.07
2018-06-25T05:20:40.613Z,16.67
2018-06-25T05:23:07.819Z,15.97
2018-06-25T05:25:35.633Z,15.50
2018-06-25T05:28:03.129Z,16.37
2018-06-25T05:30:34.119Z,15.67
2018-06-25T05:33:03.923Z,16.27
2018-06-25T05:35:31.131Z,16.23
2018-06-25T05:37:58.489Z,16.03
2018-06-25T05:40:25.679Z,16.10
2018-06-25T05:42:52.895Z,16.77
2018-06-25T05:45:20.100Z,17.13
2018-06-25T05:47:47.259Z,16.87
2018-06-25T05:50:14.428Z,17.50
2018-06-25T05:52:41.643Z,17.67
2018-06-25T05:55:08.814Z,18.40
2018-06-25T05:57:36.109Z,16.37
2018-06-25T06:00:03.861Z,17.10
2018-06-25T06:02:31.090Z,14.40
2018-06-25T06:04:58.408Z,13.83
2018-06-25T06:07:25.712Z,13.60
2018-06-25T06:09:52.952Z,13.33
2018-06-25T06:12:20.196Z,12.37
2018-06-25T06:14:47.485Z,13.23
2018-06-25T06:17:19.973Z,12.77
2018-06-25T06:19:47.282Z,13.10
2018-06-25T06:22:14.488Z,11.00
2018-06-25T06:24:41.613Z,10.90
2018-06-25T06:27:09.575Z,10.60
2018-06-25T06:29:36.832Z,11.20
2018-06-25T06:32:04.006Z,11.77
2018-06-25T06:34:31.210Z,12.10
2018-06-25T06:36:58.384Z,12.73
2018-06-25T06:39:25.573Z,11.80
2018-06-25T06:41:52.862Z,12.17
2018-06-25T06:44:20.110Z,12.87
2018-06-25T06:46:47.353Z,12.57
2018-06-25T06:49:14.596Z,11.20
2018-06-25T06:51:41.773Z,12.10
2018-06-25T06:54:08.981Z,12.37
2018-06-25T06:56:36.496Z,12.17
2018-06-25T06:59:03.776Z,12.63
2018-06-25T07:01:31.303Z,10.50
2018-06-25T07:03:58.544Z,11.60
2018-06-25T07:06:26.984Z,9.87
2018-06-25T07:08:54.141Z,10.07
2018-06-25T07:11:21.341Z,10.70
2018-06-25T07:13:48.513Z,10.57
2018-06-25T07:16:15.710Z,11.20
2018-06-25T07:18:43.029Z,11.50
2018-06-25T07:21:16.737Z,11.17
2018-06-25T07:23:43.966Z,12.23
2018-06-25T07:26:11.182Z,12.47
2018-06-25T07:28:38.381Z,13.10
2018-06-25T07:31:05.697Z,13.57
2018-06-25T07:33:32.949Z,14.07
2018-06-25T07:36:00.232Z,13.57
2018-06-25T07:38:27.522Z,14.97
2018-06-25T07:40:54.792Z,14.23
2018-06-25T07:43:22.222Z,14.80
2018-06-25T07:45:50.352Z,15.07
2018-06-25T07:48:17.570Z,14.87
2018-06-25T07:50:45.597Z,15.87
2018-06-25T07:53:14.013Z,16.53
2018-06-25T07:55:42.116Z,15.23
2018-06-25T07:58:15.644Z,16.03
2018-06-25T08:00:42.871Z,15.03
2018-06-25T08:03:10.008Z,14.73
2018-06-25T08:05:37.170Z,14.80
2018-06-25T08:08:04.546Z,13.90
2018-06-25T08:10:31.733Z,13.17
2018-06-25T08:12:58.942Z,12.43
2018-06-25T08:15:26.111Z,13.90
2018-06-25T08:17:53.605Z,14.53
2018-06-25T08:20:20.936Z,14.97
2018-06-25T08:22:48.143Z,15.60
2018-06-25T08:25:15.416Z,16.00
2018-06-25T08:27:42.636Z,14.93
2018-06-25T08:30:10.109Z,15.67
2018-06-25T08:32:37.407Z,15.80
2018-06-25T08:35:04.684Z,17.50
2018-06-25T08:37:31.823Z,17.73
2018-06-25T08:40:01.251Z,15.83
2018-06-25T08:42:28.578Z,16.70
2018-06-25T08:44:55.883Z,17.07
2018-06-25T08:47:23.077Z,13.60
2018-06-25T08:49:50.356Z,12.03
2018-06-25T08:52:17.943Z,12.20
2018-06-25T08:54:47.487Z,11.00
2018-06-25T08:57:39.377Z,10.70
2018-06-25T09:00:06.786Z,10.57
2018-06-25T09:02:34.062Z,9.53
2018-06-25T09:05:01.212Z,9.67
2018-06-25T09:07:28.448Z,10.67
2018-06-25T09:09:55.717Z,11.10
2018-06-25T09:12:22.925Z,10.80
2018-06-25T09:14:50.227Z,11.17
2018-06-25T09:17:17.480Z,10.40
2018-06-25T09:19:44.860Z,9.97
2018-06-25T09:22:12.166Z,9.97
2018-06-25T09:24:39.673Z,10.40
2018-06-25T09:27:07.783Z,8.70
2018-06-25T09:29:34.917Z,9.67
2018-06-25T09:32:02.232Z,8.70
2018-06-25T09:34:35.041Z,8.37
2018-06-25T09:37:02.260Z,8.30
2018-06-25T09:39:29.494Z,8.70
2018-06-25T09:41:56.679Z,8.60
2018-06-25T09:44:24.415Z,9.07
2018-06-25T09:46:53.912Z,8.90
2018-06-25T09:49:26.236Z,9.27
2018-06-25T09:51:53.544Z,8.80
2018-06-25T09:54:20.675Z,8.60
2018-06-25T09:56:48.420Z,9.03
2018-06-25T09:59:15.587Z,8.60
2018-06-25T10:01:43.039Z,8.27
2018-06-25T10:04:10.297Z,9.20
2018-06-25T10:06:37.540Z,8.30
2018-06-25T10:09:10.571Z,9.00
2018-06-25T10:11:37.940Z,8.33
2018-06-25T10:14:05.842Z,8.80
2018-06-25T10:16:33.055Z,7.63
2018-06-25T10:19:00.189Z,7.33
2018-06-25T10:21:27.496Z,7.67
2018-06-25T10:23:54.759Z,8.40
2018-06-25T10:26:22.022Z,8.67
2018-06-25T10:28:49.255Z,7.77
2018-06-25T10:31:16.466Z,7.97
2018-06-25T10:33:43.704Z,8.10
2018-06-25T10:36:10.860Z,7.43
2018-06-25T10:38:38.034Z,7.30
2018-06-25T10:41:05.201Z,7.20
2018-06-25T10:43:32.395Z,6.67
2018-06-25T10:45:59.685Z,7.30
2018-06-25T10:48:36.904Z,7.33
2018-06-25T10:51:04.081Z,7.23
2018-06-25T10:53:31.475Z,7.00
2018-06-25T10:55:58.667Z,7.70
2018-06-25T10:58:26.209Z,7.60
2018-06-25T11:00:53.343Z,7.63
2018-06-25T11:03:20.848Z,7.30
2018-06-25T11:05:48.100Z,7.03
2018-06-25T11:08:15.397Z,6.90
2018-06-25T11:10:42.601Z,7.17
2018-06-25T11:13:09.824Z,6.47
2018-06-25T11:15:37.036Z,6.97
2018-06-25T11:18:04.436Z,6.43
2018-06-25T11:20:31.771Z,6.53
2018-06-25T11:22:59.072Z,6.37
2018-06-25T11:25:26.231Z,5.80
2018-06-25T11:27:55.563Z,5.77
2018-06-25T11:30:22.729Z,6.07
2018-06-25T11:32:50.236Z,6.13
2018-06-25T11:35:17.425Z,5.93
2018-06-25T11:37:45.624Z,5.27
2018-06-25T11:40:13.790Z,6.07
2018-06-25T11:42:41.648Z,5.50
2018-06-25T11:45:14.668Z,5.63
2018-06-25T11:47:41.815Z,5.10
2018-06-25T11:50:08.920Z,5.53
2018-06-25T11:52:36.052Z,5.87
2018-06-25T11:55:03.248Z,5.60
2018-06-25T11:57:30.451Z,5.77
2018-06-25T11:59:57.782Z,5.30
2018-06-25T12:02:25.138Z,5.00
2018-06-25T12:04:52.949Z,5.00
2018-06-25T12:07:20.106Z,5.13
2018-06-25T12:09:48.149Z,3.97
2018-06-25T12:12:15.313Z,4.90
2018-06-25T12:14:42.425Z,5.20
2018-06-25T12:17:09.584Z,5.10
2018-06-25T12:19:37.335Z,4.67
2018-06-25T12:22:04.577Z,4.80
2018-06-25T12:24:31.788Z,4.53
2018-06-25T12:26:58.920Z,4.73
2018-06-25T12:29:26.108Z,4.57
2018-06-25T12:31:53.331Z,5.13
2018-06-25T12:34:20.761Z,4.90
2018-06-25T12:36:47.907Z,5.13
2018-06-25T12:39:15.060Z,4.40
2018-06-25T12:41:42.227Z,4.43
2018-06-25T12:44:09.372Z,4.50
2018-06-25T12:46:39.104Z,4.20
2018-06-25T12:49:06.635Z,4.37
2018-06-25T12:51:33.868Z,4.07
2018-06-25T12:54:01.341Z,3.97
2018-06-25T12:56:28.564Z,3.90
2018-06-25T12:59:03.961Z,4.00
2018-06-25T13:01:31.200Z,3.90
2018-06-25T13:03:58.369Z,4.00
2018-06-25T13:06:25.599Z,3.80
2018-06-25T13:08:52.773Z,3.77
2018-06-25T13:11:19.981Z,3.57
2018-06-25T13:13:48.654Z,3.43
2018-06-25T13:16:15.795Z,3.33
2018-06-25T13:18:42.927Z,3.93
2018-06-25T13:21:10.196Z,3.60
2018-06-25T13:23:37.335Z,3.63
2018-06-25T13:26:04.522Z,3.20
2018-06-25T13:28:35.571Z,3.60
2018-06-25T13:31:02.757Z,3.53
2018-06-25T13:33:29.930Z,3.40
2018-06-25T13:35:57.095Z,4.00
2018-06-25T13:38:24.276Z,3.27
2018-06-25T13:40:51.414Z,3.83
2018-06-25T13:43:18.720Z,3.50
2018-06-25T13:45:46.490Z,3.37
2018-06-25T13:48:13.674Z,3.37
2018-06-25T13:50:40.831Z,3.30
2018-06-25T13:53:08.032Z,3.47
2018-06-25T13:55:35.171Z,3.77
2018-06-25T13:58:02.349Z,3.20
2018-06-25T14:00:29.649Z,3.90
2018-06-25T14:02:56.799Z,3.73
2018-06-25T14:05:24.509Z,3.37
2018-06-25T14:07:52.069Z,3.17
2018-06-25T14:10:19.256Z,3.50
2018-06-25T14:12:47.202Z,3.33
2018-06-25T14:15:14.652Z,3.13
2018-06-25T14:17:41.852Z,3.33
2018-06-25T14:20:09.050Z,3.13
2018-06-25T14:22:37.387Z,3.53
2018-06-25T14:25:05.011Z,3.13
2018-06-25T14:27:37.796Z,3.40
2018-06-25T14:30:10.470Z,3.03
2018-06-25T14:32:37.669Z,3.20
2018-06-25T14:35:10.752Z,3.00
2018-06-25T14:37:40.782Z,2.77
2018-06-25T14:40:07.964Z,2.90
2018-06-25T14:42:35.161Z,3.10
2018-06-25T14:45:02.379Z,2.67
2018-06-25T14:47:29.573Z,2.87
2018-06-25T14:49:56.775Z,3.00
2018-06-25T14:52:24.165Z,2.60
2018-06-25T14:54:51.308Z,3.03
2018-06-25T14:57:18.522Z,3.27
2018-06-25T14:59:46.101Z,3.07
2018-06-25T15:02:13.809Z,3.30
2018-06-25T15:04:40.995Z,3.13
2018-06-25T15:07:09.128Z,2.90
2018-06-25T15:09:38.104Z,2.80
2018-06-25T15:12:05.343Z,2.90
2018-06-25T15:14:36.480Z,3.23
2018-06-25T15:17:03.683Z,3.30
2018-06-25T15:19:30.898Z,3.10
2018-06-25T15:21:58.154Z,3.30
2018-06-25T15:24:25.487Z,3.40
2018-06-25T15:26:52.740Z,3.20
2018-06-25T15:29:19.944Z,3.03
2018-06-25T15:31:47.249Z,3.40
2018-06-25T15:34:14.430Z,3.90
2018-06-25T15:36:42.367Z,3.97
2018-06-25T15:39:10.150Z,3.33
2018-06-25T15:41:37.757Z,3.90
2018-06-25T15:44:05.012Z,3.40
2018-06-25T15:46:33.384Z,3.43
2018-06-25T15:49:00.961Z,4.00
2018-06-25T15:51:28.309Z,3.90
2018-06-25T15:53:55.587Z,3.60
2018-06-25T15:56:22.787Z,4.50
2018-06-25T15:58:50.044Z,4.47
2018-06-25T16:01:17.266Z,5.50
2018-06-25T16:03:44.531Z,4.93
2018-06-25T16:06:12.311Z,4.57
2018-06-25T16:08:39.509Z,5.03
2018-06-25T16:11:06.710Z,4.93
2018-06-25T16:13:34.751Z,5.20
2018-06-25T16:16:01.892Z,4.57
2018-06-25T16:18:29.141Z,4.90
2018-06-25T16:20:56.455Z,6.23
2018-06-25T16:23:23.712Z,4.87
2018-06-25T16:25:50.947Z,4.77
2018-06-25T16:28:18.152Z,5.00
2018-06-25T16:30:45.355Z,5.30
2018-06-25T16:33:12.540Z,4.70
2018-06-25T16:35:39.739Z,4.73
2018-06-25T16:38:06.926Z,4.70
2018-06-25T16:40:34.089Z,4.27
2018-06-25T16:43:01.305Z,4.60
2018-06-25T16:45:28.609Z,4.43
2018-06-25T16:47:55.788Z,4.17
2018-06-25T16:50:22.996Z,4.27
2018-06-25T16:52:50.156Z,4.53
2018-06-25T16:55:17.294Z,4.50
2018-06-25T16:57:44.525Z,4.53
2018-06-25T17:00:11.801Z,4.27
2018-06-25T17:02:38.962Z,4.20
2018-06-25T17:05:06.181Z,3.53
2018-06-25T17:07:33.341Z,3.83
2018-06-25T17:10:00.521Z,3.73
2018-06-25T17:12:27.836Z,4.07
2018-06-25T17:14:55.106Z,3.80
2018-06-25T17:17:22.446Z,4.23
2018-06-25T17:19:49.755Z,3.50
2018-06-25T17:22:18.788Z,3.33
2018-06-25T17:24:46.596Z,3.83
2018-06-25T17:27:14.857Z,3.47
2018-06-25T17:29:42.114Z,3.97
2018-06-25T17:32:09.329Z,3.23
2018-06-25T17:34:36.523Z,3.50
2018-06-25T17:37:03.815Z,3.27
2018-06-25T17:39:31.123Z,3.73
2018-06-25T17:41:59.377Z,3.60
2018-06-25T17:44:26.752Z,3.37
2018-06-25T17:46:57.796Z,3.50
2018-06-25T17:49:25.279Z,3.30
2018-06-25T17:51:53.053Z,3.33
2018-06-25T17:54:20.235Z,3.63
2018-06-25T17:56:49.476Z,3.53
2018-06-25T17:59:16.718Z,3.30
2018-06-25T18:01:43.999Z,3.20
2018-06-25T18:04:11.609Z,3.90
2018-06-25T18:06:38.761Z,3.40
2018-06-25T18:09:07.482Z,3.63
2018-06-25T18:11:34.698Z,3.30
2018-06-25T18:14:02.547Z,3.57
2018-06-25T18:16:29.701Z,3.80
2018-06-25T18:18:58.110Z,3.60
2018-06-25T18:21:25.503Z,3.53
2018-06-25T18:23:53.778Z,4.00
2018-06-25T18:26:21.991Z,3.77
2018-06-25T18:28:49.248Z,3.73
2018-06-25T18:31:16.576Z,3.80
2018-06-25T18:33:44.351Z,3.90
2018-06-25T18:36:11.544Z,3.83
2018-06-25T18:38:38.822Z,3.70
2018-06-25T18:41:06.117Z,4.83
2018-06-25T18:43:33.431Z,4.20
2018-06-25T18:46:00.752Z,4.53
2018-06-25T18:48:28.165Z,4.90
2018-06-25T18:50:55.709Z,4.80
2018-06-25T18:53:23.118Z,5.20
2018-06-25T18:55:50.741Z,5.53
2018-06-25T18:58:17.868Z,6.17
2018-06-25T19:00:45.029Z,5.37
2018-06-25T19:03:12.310Z,5.97
2018-06-25T19:05:39.479Z,5.67
2018-06-25T19:08:07.340Z,6.03
2018-06-25T19:10:34.899Z,6.30
2018-06-25T19:13:03.438Z,6.17
2018-06-25T19:15:31.557Z,6.37
2018-06-25T19:17:58.823Z,5.70
2018-06-25T19:20:26.093Z,6.13
2018-06-25T19:22:53.322Z,6.23
2018-06-25T19:25:20.668Z,6.20
2018-06-25T19:27:48.082Z,5.97
2018-06-25T19:30:15.236Z,6.83
2018-06-25T19:32:42.433Z,6.27
2018-06-25T19:35:09.920Z,6.10
2018-06-25T19:37:37.130Z,6.13
2018-06-25T19:40:04.909Z,6.53
2018-06-25T19:42:32.053Z,6.03
2018-06-25T19:44:59.230Z,6.53
2018-06-25T19:47:26.503Z,6.70
2018-06-25T19:49:53.705Z,6.50
2018-06-25T19:52:21.030Z,6.97
2018-06-25T19:54:48.201Z,6.43
2018-06-25T19:57:15.323Z,6.23
2018-06-25T19:59:42.530Z,6.80
2018-06-25T20:02:09.672Z,8.23
2018-06-25T20:04:36.937Z,7.13
2018-06-25T20:07:04.115Z,6.80
2018-06-25T20:09:31.303Z,7.80
2018-06-25T20:11:58.512Z,6.93
2018-06-25T20:14:25.779Z,7.30
2018-06-25T20:16:53.171Z,7.17
2018-06-25T20:19:20.412Z,7.30
2018-06-25T20:21:47.593Z,7.07
2018-06-25T20:24:14.788Z,7.73
2018-06-25T20:26:41.891Z,7.97
2018-06-25T20:29:09.566Z,8.13
2018-06-25T20:31:36.630Z,8.50
2018-06-25T20:34:03.883Z,9.50
2018-06-25T20:36:31.044Z,9.57
2018-06-25T20:38:58.699Z,9.37
2018-06-25T20:41:26.072Z,8.90
2018-06-25T20:43:53.224Z,9.87
2018-06-25T20:46:21.316Z,9.73
2018-06-25T20:48:48.489Z,9.53
2018-06-25T20:51:15.638Z,9.97
2018-06-25T20:53:42.923Z,10.57
2018-06-25T20:56:10.157Z,10.67
2018-06-25T20:58:37.312Z,10.30
2018-06-25T21:01:04.540Z,10.03
2018-06-25T21:03:31.691Z,10.87
2018-06-25T21:05:59.108Z,10.10
2018-06-25T21:08:26.690Z,10.33
2018-06-25T21:10:53.931Z,11.00
2018-06-25T21:13:21.055Z,10.90
2018-06-25T21:15:48.265Z,11.00
2018-06-25T21:18:15.545Z,11.27
2018-06-25T21:20:42.693Z,11.47
2018-06-25T21:23:09.907Z,10.73
2018-06-25T21:25:37.096Z,11.77
2018-06-25T21:28:05.314Z,10.77
2018-06-25T21:30:32.637Z,11.67
2018-06-25T21:32:59.788Z,12.43
2018-06-25T21:35:26.997Z,11.73
2018-06-25T21:37:54.583Z,12.03
2018-06-25T21:40:21.728Z,12.03
2018-06-25T21:42:49.018Z,12.93
2018-06-25T21:45:16.198Z,12.40
2018-06-25T21:47:43.336Z,13.30
2018-06-25T21:50:10.450Z,13.83
2018-06-25T21:52:37.641Z,12.50
2018-06-25T21:55:05.763Z,13.03
2018-06-25T21:57:32.880Z,13.47
2018-06-25T22:00:00.100Z,13.30
2018-06-25T22:02:27.364Z,12.83
2018-06-25T22:04:54.531Z,12.47
2018-06-25T22:07:21.844Z,13.03
2018-06-25T22:09:48.948Z,12.10
2018-06-25T22:12:16.107Z,12.40
2018-06-25T22:14:43.252Z,12.53
2018-06-25T22:17:10.366Z,12.40
2018-06-25T22:19:37.665Z,13.40
2018-06-25T22:22:04.872Z,13.43
2018-06-25T22:24:32.025Z,12.73
2018-06-25T22:26:59.172Z,12.83
2018-06-25T22:29:26.373Z,13.30
2018-06-25T22:31:53.711Z,14.23
2018-06-25T22:34:20.857Z,14.10
2018-06-25T22:36:48.025Z,13.40
2018-06-25T22:39:15.178Z,13.07
2018-06-25T22:41:42.307Z,13.67
2018-06-25T22:44:11.085Z,14.83
2018-06-25T22:46:39.524Z,14.17
2018-06-25T22:49:06.731Z,15.57
2018-06-25T22:51:33.942Z,14.27
2018-06-25T22:54:01.284Z,14.50
2018-06-25T22:56:28.626Z,14.17
2018-06-25T22:58:55.877Z,14.67
2018-06-25T23:01:23.080Z,15.43
2018-06-25T23:03:50.272Z,15.07
2018-06-25T23:06:17.463Z,14.77
2018-06-25T23:08:44.869Z,15.57
2018-06-25T23:11:12.137Z,14.50
2018-06-25T23:13:39.300Z,15.47
2018-06-25T23:16:06.444Z,15.73
2018-06-25T23:18:33.782Z,15.70
2018-06-25T23:21:01.112Z,14.47
2018-06-25T23:23:29.137Z,15.33
2018-06-25T23:25:56.333Z,14.93
2018-06-25T23:28:23.545Z,15.23
2018-06-25T23:30:50.698Z,16.33
2018-06-25T23:33:17.967Z,15.83
2018-06-25T23:35:45.124Z,16.80
2018-06-25T23:38:12.243Z,16.43
2018-06-25T23:40:39.404Z,15.93
2018-06-25T23:43:06.771Z,16.50
2018-06-25T23:45:34.133Z,15.63
2018-06-25T23:48:01.276Z,15.93
2018-06-25T23:50:28.506Z,14.70
2018-06-25T23:52:55.684Z,15.13
2018-06-25T23:55:22.821Z,15.67
2018-06-25T23:57:50.540Z,14.77
